Terminal Aerodrome Forecast
Issued by NWS

Home | Current Version | Previous Version | Graphics & Text | Print | Product List | Glossary On
Versions: 1 2 3 4 5 6 7 8 9 10 11 12 13 14 15 16 17 18 19
000
FTUS43 KBIS 190527
TAFMOT
TAF
KMOT 190527Z 1906/2006 11007KT P6SM BKN200
     FM191000 11010KT P6SM VCSH BKN150 WS020/15040KT
     FM191400 14013KT P6SM -SHRA OVC060
     FM191800 17011KT P6SM VCSH OVC110
     FM192200 25014KT P6SM VCTS OVC060CB
     FM200000 26014KT P6SM OVC070=

USA.gov is the U.S. government's official web portal to all federal, state and local government web resources and services.